createdAt,value
2023-05-25T00:01:02.767Z,1.73
2023-05-25T00:03:31.363Z,1.80
2023-05-25T00:05:58.856Z,1.35
2023-05-25T00:08:27.595Z,1.80
2023-05-25T00:10:54.125Z,1.80
2023-05-25T00:13:20.759Z,1.73
2023-05-25T00:15:47.700Z,1.38
2023-05-25T00:18:14.248Z,1.45
2023-05-25T00:20:40.918Z,1.80
2023-05-25T00:23:07.462Z,1.58
2023-05-25T00:25:33.940Z,1.70
2023-05-25T00:28:00.626Z,1.60
2023-05-25T00:30:30.684Z,1.67
2023-05-25T00:33:01.859Z,1.90
2023-05-25T00:35:29.256Z,2.20
2023-05-25T00:37:55.972Z,1.45
2023-05-25T00:40:23.537Z,1.58
2023-05-25T00:42:50.956Z,2.08
2023-05-25T00:45:17.594Z,1.98
2023-05-25T00:47:44.698Z,2.00
2023-05-25T00:50:15.082Z,1.92
2023-05-25T00:52:41.790Z,1.58
2023-05-25T00:55:11.660Z,1.98
2023-05-25T00:57:41.440Z,2.00
2023-05-25T01:00:11.540Z,1.77
2023-05-25T01:02:40.973Z,1.60
2023-05-25T01:05:10.745Z,1.65
2023-05-25T01:07:39.184Z,2.08
2023-05-25T01:10:07.872Z,1.50
2023-05-25T01:12:37.958Z,1.55
2023-05-25T01:15:05.696Z,1.50
2023-05-25T01:17:32.331Z,2.10
2023-05-25T01:22:55.527Z,2.08
2023-05-25T01:25:40.623Z,1.45
2023-05-25T01:28:15.112Z,1.75
2023-05-25T01:30:44.868Z,1.73
2023-05-25T01:33:12.260Z,1.83
2023-05-25T01:35:41.417Z,2.08
2023-05-25T01:38:09.692Z,1.80
2023-05-25T01:40:36.278Z,1.65
2023-05-25T01:43:02.811Z,1.80
2023-05-25T01:45:31.319Z,2.20
2023-05-25T01:48:09.542Z,2.72
2023-05-25T01:50:54.877Z,1.83
2023-05-25T01:53:42.987Z,1.92
2023-05-25T01:56:11.688Z,1.83
2023-05-25T01:58:42.141Z,2.00
2023-05-25T02:01:10.163Z,2.33
2023-05-25T02:03:38.299Z,1.85
2023-05-25T02:06:04.966Z,1.98
2023-05-25T02:08:33.146Z,2.00
2023-05-25T02:10:59.811Z,2.40
2023-05-25T02:13:26.392Z,2.78
2023-05-25T02:15:53.158Z,2.38
2023-05-25T02:18:19.842Z,2.10
2023-05-25T02:20:47.575Z,1.98
2023-05-25T02:23:14.147Z,2.10
2023-05-25T02:25:42.755Z,2.30
2023-05-25T02:28:09.662Z,2.72
2023-05-25T02:30:36.375Z,2.30
2023-05-25T02:33:05.008Z,2.38
2023-05-25T02:35:31.596Z,2.95
2023-05-25T02:37:58.123Z,2.75
2023-05-25T02:40:24.656Z,2.40
2023-05-25T02:42:51.209Z,2.63
2023-05-25T02:45:18.140Z,2.55
2023-05-25T02:47:44.781Z,2.58
2023-05-25T02:50:11.447Z,2.58
2023-05-25T02:52:38.032Z,2.95
2023-05-25T02:55:10.311Z,1.92
2023-05-25T02:57:39.989Z,2.80
2023-05-25T03:00:08.114Z,2.38
2023-05-25T03:02:37.515Z,2.10
2023-05-25T03:05:07.484Z,3.00
2023-05-25T03:07:34.287Z,2.25
2023-05-25T03:10:01.029Z,2.05
2023-05-25T03:12:27.748Z,3.08
2023-05-25T03:14:54.301Z,2.13
2023-05-25T03:17:20.856Z,3.15
2023-05-25T03:19:47.465Z,2.55
2023-05-25T03:22:14.053Z,2.42
2023-05-25T03:24:43.398Z,2.58
2023-05-25T03:27:09.983Z,2.55
2023-05-25T03:29:38.397Z,3.08
2023-05-25T03:32:05.430Z,2.45
2023-05-25T03:34:34.637Z,3.00
2023-05-25T03:37:01.352Z,2.45
2023-05-25T03:39:27.836Z,2.33
2023-05-25T03:41:55.583Z,3.17
2023-05-25T03:44:22.068Z,2.75
2023-05-25T03:46:48.564Z,3.22
2023-05-25T03:49:15.126Z,3.88
2023-05-25T03:51:43.429Z,2.60
2023-05-25T03:54:10.245Z,1.95
2023-05-25T03:56:36.777Z,2.58
2023-05-25T03:59:03.330Z,2.92
2023-05-25T04:01:30.188Z,2.92
2023-05-25T04:03:57.355Z,2.72
2023-05-25T04:06:25.437Z,2.58
2023-05-25T04:08:52.691Z,2.55
2023-05-25T04:11:19.838Z,3.03
2023-05-25T04:13:46.640Z,2.85
2023-05-25T04:16:13.347Z,2.92
2023-05-25T04:18:41.576Z,2.38
2023-05-25T04:21:08.093Z,3.08
2023-05-25T04:23:34.745Z,2.95
2023-05-25T04:26:01.590Z,3.90
2023-05-25T04:28:28.362Z,3.05
2023-05-25T04:30:57.861Z,2.97
2023-05-25T04:33:24.874Z,2.63
2023-05-25T04:35:51.539Z,2.83
2023-05-25T04:38:18.062Z,2.92
2023-05-25T04:40:46.401Z,3.00
2023-05-25T04:43:13.816Z,3.10
2023-05-25T04:45:42.861Z,3.00
2023-05-25T04:48:12.896Z,3.90
2023-05-25T04:50:45.809Z,3.05
2023-05-25T04:53:13.741Z,3.10
2023-05-25T04:55:42.854Z,2.75
2023-05-25T04:58:09.589Z,2.75
2023-05-25T05:00:36.444Z,2.83
2023-05-25T05:03:03.096Z,3.70
2023-05-25T05:05:29.690Z,3.25
2023-05-25T05:07:56.213Z,3.25
2023-05-25T05:10:22.944Z,3.22
2023-05-25T05:12:49.478Z,3.17
2023-05-25T05:15:16.424Z,3.92
2023-05-25T05:17:46.641Z,3.47
2023-05-25T05:20:16.061Z,3.83
2023-05-25T05:22:45.593Z,3.72
2023-05-25T05:25:14.355Z,3.85
2023-05-25T05:27:40.917Z,4.10
2023-05-25T05:30:08.250Z,3.97
2023-05-25T05:32:34.802Z,3.65
2023-05-25T05:35:01.421Z,4.97
2023-05-25T05:37:28.045Z,3.40
2023-05-25T05:39:54.556Z,3.58
2023-05-25T05:42:21.202Z,3.88
2023-05-25T05:44:47.731Z,3.47
2023-05-25T05:47:17.499Z,3.15
2023-05-25T05:49:47.467Z,3.97
2023-05-25T05:52:17.503Z,3.55
2023-05-25T05:54:47.893Z,3.38
2023-05-25T05:57:18.827Z,4.45
2023-05-25T05:59:48.022Z,3.65
2023-05-25T06:02:15.577Z,4.18
2023-05-25T06:04:42.180Z,4.53
2023-05-25T06:07:08.679Z,3.97
2023-05-25T06:09:35.236Z,3.70
2023-05-25T06:12:03.356Z,4.65
2023-05-25T06:14:29.870Z,4.53
2023-05-25T06:16:56.446Z,4.70
2023-05-25T06:19:22.993Z,4.05
2023-05-25T06:21:49.525Z,3.55
2023-05-25T06:24:16.269Z,3.83
2023-05-25T06:26:45.016Z,3.63
2023-05-25T06:29:11.684Z,3.95
2023-05-25T06:31:38.247Z,3.28
2023-05-25T06:34:04.811Z,3.83
2023-05-25T06:36:32.570Z,4.03
2023-05-25T06:38:59.150Z,3.53
2023-05-25T06:41:26.223Z,4.20
2023-05-25T06:43:52.696Z,3.85
2023-05-25T06:46:19.296Z,3.65
2023-05-25T06:48:46.196Z,3.95
2023-05-25T06:51:15.455Z,3.97
2023-05-25T06:53:41.975Z,3.38
2023-05-25T06:56:08.562Z,3.72
2023-05-25T06:58:35.195Z,3.83
2023-05-25T07:01:02.116Z,3.95
2023-05-25T07:03:28.705Z,4.93
2023-05-25T07:05:55.360Z,4.88
2023-05-25T07:08:21.838Z,6.68
2023-05-25T07:10:50.196Z,6.22
2023-05-25T07:13:17.105Z,3.53
2023-05-25T07:15:47.474Z,3.53
2023-05-25T07:18:17.984Z,3.63
2023-05-25T07:20:47.723Z,3.67
2023-05-25T07:23:18.023Z,3.88
2023-05-25T07:25:48.403Z,4.32
2023-05-25T07:28:17.202Z,4.43
2023-05-25T07:30:43.705Z,3.90
2023-05-25T07:33:10.555Z,3.95
2023-05-25T07:35:37.364Z,4.57
2023-05-25T07:38:05.016Z,4.55
2023-05-25T07:40:31.763Z,5.32
2023-05-25T07:42:58.822Z,4.90
2023-05-25T07:45:25.782Z,4.15
2023-05-25T07:47:52.655Z,4.50
2023-05-25T07:50:19.674Z,3.80
2023-05-25T07:52:49.486Z,4.50
2023-05-25T07:55:20.224Z,4.65
2023-05-25T07:57:49.734Z,4.68
2023-05-25T08:00:49.487Z,3.83
2023-05-25T08:03:26.186Z,4.47
2023-05-25T08:05:58.704Z,3.72
2023-05-25T08:08:25.271Z,4.55
2023-05-25T08:10:51.832Z,4.10
2023-05-25T08:13:18.381Z,4.28
2023-05-25T08:15:47.071Z,4.78
2023-05-25T08:18:13.615Z,4.13
2023-05-25T08:20:40.363Z,3.97
2023-05-25T08:23:07.176Z,4.45
2023-05-25T08:25:33.803Z,4.05
2023-05-25T08:28:00.314Z,4.20
2023-05-25T08:30:26.877Z,4.30
2023-05-25T08:32:53.423Z,4.95
2023-05-25T08:35:23.035Z,4.65
2023-05-25T08:37:49.515Z,4.50
2023-05-25T08:40:22.890Z,4.40
2023-05-25T08:42:49.380Z,4.65
2023-05-25T08:45:33.525Z,5.35
2023-05-25T08:48:01.843Z,4.32
2023-05-25T08:50:30.984Z,8.18
2023-05-25T08:53:02.613Z,7.38
2023-05-25T08:55:35.542Z,5.65
2023-05-25T08:58:30.863Z,7.97
2023-05-25T09:01:01.459Z,8.77
2023-05-25T09:03:30.979Z,8.43
2023-05-25T09:05:58.043Z,7.68
2023-05-25T09:08:25.456Z,7.75
2023-05-25T09:10:52.600Z,8.13
2023-05-25T09:13:22.516Z,6.90
2023-05-25T09:15:50.691Z,6.70
2023-05-25T09:18:17.703Z,7.28
2023-05-25T09:20:47.795Z,6.97
2023-05-25T09:23:16.777Z,7.55
2023-05-25T09:25:47.413Z,7.00
2023-05-25T09:28:26.330Z,7.43
2023-05-25T09:30:53.653Z,6.95
2023-05-25T09:33:20.621Z,7.65
2023-05-25T09:35:48.292Z,6.82
2023-05-25T09:38:18.338Z,7.07
2023-05-25T09:40:46.850Z,7.50
2023-05-25T09:43:21.902Z,7.15
2023-05-25T09:45:55.795Z,6.85
2023-05-25T09:48:23.070Z,6.88
2023-05-25T09:50:50.140Z,6.95
2023-05-25T09:53:17.528Z,6.18
2023-05-25T09:55:53.011Z,7.63
2023-05-25T09:58:24.893Z,6.75
2023-05-25T10:00:54.685Z,6.63
2023-05-25T10:03:21.692Z,7.20
2023-05-25T10:05:49.137Z,7.18
2023-05-25T10:08:20.113Z,7.40
2023-05-25T10:10:50.661Z,7.30
2023-05-25T10:13:26.396Z,7.32
2023-05-25T10:15:54.684Z,7.88
2023-05-25T10:18:28.025Z,7.68
2023-05-25T10:21:03.311Z,7.63
2023-05-25T10:23:42.914Z,7.30
2023-05-25T10:26:12.998Z,6.55
2023-05-25T10:28:40.621Z,7.35
2023-05-25T10:31:09.170Z,6.40
2023-05-25T10:33:35.939Z,6.43
2023-05-25T10:36:10.887Z,6.43
2023-05-25T10:38:40.723Z,7.80
2023-05-25T10:41:09.369Z,6.60
2023-05-25T10:43:36.595Z,6.72
2023-05-25T10:46:04.352Z,7.25
2023-05-25T10:48:40.948Z,6.00
2023-05-25T10:51:09.409Z,6.30
2023-05-25T10:53:38.358Z,6.50
2023-05-25T10:56:07.303Z,6.28
2023-05-25T10:58:34.384Z,5.93
2023-05-25T11:01:05.567Z,6.38
2023-05-25T11:03:45.788Z,6.25
2023-05-25T11:06:16.962Z,6.45
2023-05-25T11:08:59.111Z,5.80
2023-05-25T11:11:44.470Z,6.88
2023-05-25T11:14:30.318Z,5.78
2023-05-25T11:17:19.048Z,6.88
2023-05-25T11:19:51.565Z,6.63
2023-05-25T11:22:31.957Z,6.75
2023-05-25T11:25:00.617Z,6.47
2023-05-25T11:27:29.015Z,6.85
2023-05-25T11:29:59.266Z,6.93
2023-05-25T11:32:27.351Z,6.10
2023-05-25T11:34:58.348Z,6.22
2023-05-25T11:37:28.939Z,6.25
2023-05-25T11:39:55.988Z,6.50
2023-05-25T11:42:26.243Z,6.25
2023-05-25T11:44:53.623Z,6.47
2023-05-25T11:47:24.812Z,6.78
2023-05-25T11:49:51.637Z,6.20
2023-05-25T11:52:19.854Z,6.32
2023-05-25T11:54:49.257Z,6.25
2023-05-25T11:57:22.476Z,5.88
2023-05-25T11:59:55.012Z,5.95
2023-05-25T12:02:22.793Z,6.45
2023-05-25T12:05:10.715Z,5.63
2023-05-25T12:07:44.347Z,6.72
2023-05-25T12:10:12.892Z,5.70
2023-05-25T12:12:51.218Z,5.13
2023-05-25T12:15:22.524Z,6.00
2023-05-25T12:17:50.562Z,6.20
2023-05-25T12:20:20.918Z,6.05
2023-05-25T12:22:47.975Z,5.85
2023-05-25T12:25:18.299Z,6.10
2023-05-25T12:27:47.195Z,6.25
2023-05-25T12:30:13.896Z,6.18
2023-05-25T12:33:03.841Z,5.43
2023-05-25T12:35:44.523Z,5.53
2023-05-25T12:38:13.228Z,6.25
2023-05-25T12:40:41.466Z,5.95
2023-05-25T12:43:08.070Z,6.20
2023-05-25T12:45:40.631Z,5.82
2023-05-25T12:48:07.654Z,5.55
2023-05-25T12:50:34.728Z,5.88
2023-05-25T12:53:02.972Z,5.72
2023-05-25T12:55:31.104Z,6.15
2023-05-25T12:57:59.774Z,6.35
2023-05-25T13:00:28.415Z,5.95
2023-05-25T13:02:55.712Z,6.05
2023-05-25T13:05:27.387Z,6.10
2023-05-25T13:07:56.033Z,6.50
2023-05-25T13:10:23.604Z,6.05
2023-05-25T13:12:51.799Z,6.22
2023-05-25T13:15:22.074Z,5.95
2023-05-25T13:17:52.713Z,5.68
2023-05-25T13:20:25.177Z,5.47
2023-05-25T13:22:53.302Z,6.13
2023-05-25T13:25:23.202Z,6.18
2023-05-25T13:27:54.243Z,5.70
2023-05-25T13:30:22.120Z,5.32
2023-05-25T13:32:52.874Z,6.32
2023-05-25T13:35:41.984Z,6.03
2023-05-25T13:38:10.408Z,5.82
2023-05-25T13:40:36.937Z,6.20
2023-05-25T13:43:03.688Z,5.82
2023-05-25T13:45:30.502Z,5.70
2023-05-25T13:47:57.477Z,5.68
2023-05-25T13:50:24.540Z,6.45
2023-05-25T13:52:51.810Z,6.30
2023-05-25T13:55:22.382Z,6.85
2023-05-25T13:57:49.507Z,7.00
2023-05-25T14:00:16.684Z,6.93
2023-05-25T14:02:43.568Z,6.75
2023-05-25T14:05:10.762Z,6.70
2023-05-25T14:07:39.365Z,5.85
2023-05-25T14:10:06.646Z,6.10
2023-05-25T14:12:33.337Z,6.78
2023-05-25T14:14:59.882Z,6.05
2023-05-25T14:17:26.648Z,5.95
2023-05-25T14:19:53.382Z,6.32
2023-05-25T14:22:21.393Z,6.63
2023-05-25T14:24:47.962Z,6.70
2023-05-25T14:27:16.121Z,6.47
2023-05-25T14:29:42.612Z,6.32
2023-05-25T14:32:09.142Z,5.95
2023-05-25T14:34:35.885Z,5.72
2023-05-25T14:37:02.722Z,6.47
2023-05-25T14:39:29.771Z,5.70
2023-05-25T14:41:56.328Z,5.78
2023-05-25T14:44:22.869Z,5.68
2023-05-25T14:46:52.230Z,6.40
2023-05-25T14:49:21.258Z,5.88
2023-05-25T14:51:47.788Z,5.78
2023-05-25T14:54:14.251Z,5.00
2023-05-25T14:56:41.085Z,5.50
2023-05-25T14:59:08.089Z,5.82
2023-05-25T15:01:36.446Z,5.93
2023-05-25T15:04:03.395Z,5.97
2023-05-25T15:06:30.154Z,5.63
2023-05-25T15:08:57.162Z,5.53
2023-05-25T15:11:24.127Z,5.38
2023-05-25T15:13:54.631Z,5.95
2023-05-25T15:16:23.704Z,5.40
2023-05-25T15:18:53.432Z,5.50
2023-05-25T15:21:23.080Z,5.07
2023-05-25T15:23:52.464Z,5.47
2023-05-25T15:26:21.039Z,5.40
2023-05-25T15:28:47.591Z,5.50
2023-05-25T15:31:14.128Z,6.25
2023-05-25T15:33:50.197Z,5.72
2023-05-25T15:36:23.312Z,5.35
2023-05-25T15:38:52.778Z,6.10
2023-05-25T15:41:22.560Z,6.25
2023-05-25T15:43:57.841Z,5.53
2023-05-25T15:46:24.636Z,5.57
2023-05-25T15:48:54.317Z,5.88
2023-05-25T15:51:22.155Z,6.20
2023-05-25T15:53:52.093Z,6.07
2023-05-25T15:56:22.123Z,5.55
2023-05-25T15:58:51.893Z,6.18
2023-05-25T16:01:18.473Z,6.03
2023-05-25T16:03:45.909Z,6.05
2023-05-25T16:06:12.461Z,6.13
2023-05-25T16:08:39.039Z,5.57
2023-05-25T16:11:05.570Z,5.60
2023-05-25T16:13:32.109Z,5.70
2023-05-25T16:15:58.824Z,5.65
2023-05-25T16:18:27.721Z,6.00
2023-05-25T16:20:57.655Z,6.13
2023-05-25T16:23:25.168Z,6.20
2023-05-25T16:25:51.866Z,6.40
2023-05-25T16:28:21.960Z,6.15
2023-05-25T16:30:50.681Z,6.38
2023-05-25T16:33:17.291Z,5.97
2023-05-25T16:35:44.173Z,5.70
2023-05-25T16:38:10.919Z,6.03
2023-05-25T16:40:37.531Z,6.53
2023-05-25T16:43:04.181Z,6.07
2023-05-25T16:45:30.738Z,6.55
2023-05-25T16:47:57.295Z,6.75
2023-05-25T16:50:23.867Z,6.05
2023-05-25T16:52:53.629Z,5.50
2023-05-25T16:55:23.649Z,6.55
2023-05-25T16:57:53.041Z,6.00
2023-05-25T17:00:24.501Z,6.90
2023-05-25T17:02:53.701Z,6.20
2023-05-25T17:05:24.106Z,6.03
2023-05-25T17:07:53.600Z,6.57
2023-05-25T17:10:23.067Z,5.80
2023-05-25T17:12:53.708Z,5.82
2023-05-25T17:15:22.866Z,6.50
2023-05-25T17:17:52.151Z,6.20
2023-05-25T17:20:21.131Z,6.85
2023-05-25T17:22:51.541Z,6.88
2023-05-25T17:25:18.070Z,6.65
2023-05-25T17:27:44.592Z,6.90
2023-05-25T17:30:11.852Z,6.50
2023-05-25T17:32:40.907Z,5.65
2023-05-25T17:35:08.816Z,5.78
2023-05-25T17:37:38.993Z,6.38
2023-05-25T17:40:06.870Z,7.20
2023-05-25T17:42:33.516Z,6.93
2023-05-25T17:45:10.644Z,6.20
2023-05-25T17:48:02.648Z,6.57
2023-05-25T17:50:29.282Z,5.90
2023-05-25T17:52:55.865Z,5.57
2023-05-25T17:55:27.758Z,6.15
2023-05-25T17:58:02.276Z,6.38
2023-05-25T18:00:37.196Z,6.85
2023-05-25T18:03:04.369Z,6.20
2023-05-25T18:05:31.298Z,6.13
2023-05-25T18:07:57.825Z,5.97
2023-05-25T18:10:24.440Z,6.75
2023-05-25T18:12:54.218Z,6.30
2023-05-25T18:15:23.505Z,6.22
2023-05-25T18:17:56.761Z,6.05
2023-05-25T18:20:44.627Z,6.10
2023-05-25T18:23:24.975Z,6.03
2023-05-25T18:25:55.703Z,6.03
2023-05-25T18:28:23.453Z,5.18
2023-05-25T18:30:53.669Z,5.78
2023-05-25T18:33:23.186Z,5.90
2023-05-25T18:35:50.838Z,5.20
2023-05-25T18:38:17.402Z,6.10
2023-05-25T18:40:43.925Z,5.82
2023-05-25T18:43:10.469Z,6.25
2023-05-25T18:45:39.509Z,5.70
2023-05-25T18:48:09.286Z,5.43
2023-05-25T18:50:39.294Z,5.55
2023-05-25T18:53:07.718Z,5.20
2023-05-25T18:55:34.630Z,6.00
2023-05-25T18:58:01.510Z,6.53
2023-05-25T19:00:28.023Z,5.35
2023-05-25T19:02:54.674Z,5.30
2023-05-25T19:05:24.509Z,5.78
2023-05-25T19:07:59.077Z,5.57
2023-05-25T19:10:26.602Z,6.40
2023-05-25T19:12:53.192Z,5.20
2023-05-25T19:15:22.576Z,5.93
2023-05-25T19:17:51.589Z,5.78
2023-05-25T19:20:18.307Z,6.13
2023-05-25T19:22:45.720Z,5.72
2023-05-25T19:25:12.341Z,5.78
2023-05-25T19:27:38.968Z,5.80
2023-05-25T19:30:06.005Z,5.80
2023-05-25T19:32:32.690Z,5.15
2023-05-25T19:34:59.246Z,5.32
2023-05-25T19:37:26.196Z,5.60
2023-05-25T19:39:52.676Z,6.07
2023-05-25T19:42:21.589Z,5.60
2023-05-25T19:44:48.187Z,5.30
2023-05-25T19:47:14.714Z,5.43
2023-05-25T19:49:41.412Z,5.00
2023-05-25T19:52:08.041Z,5.25
2023-05-25T19:54:34.631Z,5.43
2023-05-25T19:57:03.938Z,5.85
2023-05-25T19:59:31.372Z,5.35
2023-05-25T20:02:31.734Z,4.88
2023-05-25T20:04:58.614Z,5.70
2023-05-25T20:07:25.182Z,5.00
2023-05-25T20:09:54.981Z,5.65
2023-05-25T20:12:24.373Z,5.07
2023-05-25T20:14:54.696Z,5.68
2023-05-25T20:17:23.928Z,5.05
2023-05-25T20:19:53.585Z,4.70
2023-05-25T20:22:22.328Z,4.82
2023-05-25T20:24:52.086Z,5.55
2023-05-25T20:27:18.657Z,5.55
2023-05-25T20:29:45.507Z,5.03
2023-05-25T20:32:12.231Z,5.25
2023-05-25T20:34:38.985Z,5.97
2023-05-25T20:37:08.300Z,5.70
2023-05-25T20:39:38.551Z,5.72
2023-05-25T20:42:05.270Z,5.30
2023-05-25T20:44:32.139Z,5.50
2023-05-25T20:46:58.744Z,5.82
2023-05-25T20:49:26.090Z,5.30
2023-05-25T20:51:55.943Z,5.80
2023-05-25T20:54:28.006Z,5.63
2023-05-25T20:56:54.484Z,6.03
2023-05-25T20:59:24.160Z,5.28
2023-05-25T21:01:52.971Z,6.05
2023-05-25T21:04:20.027Z,5.50
2023-05-25T21:06:46.670Z,5.30
2023-05-25T21:09:14.338Z,6.05
2023-05-25T21:11:40.876Z,5.70
2023-05-25T21:14:08.113Z,5.38
2023-05-25T21:16:34.828Z,5.72
2023-05-25T21:19:01.572Z,6.70
2023-05-25T21:21:28.890Z,5.65
2023-05-25T21:23:55.495Z,5.57
2023-05-25T21:26:26.249Z,5.65
2023-05-25T21:28:55.894Z,5.80
2023-05-25T21:31:24.695Z,5.53
2023-05-25T21:33:54.404Z,5.70
2023-05-25T21:36:20.974Z,5.25
2023-05-25T21:38:47.535Z,5.60
2023-05-25T21:41:14.089Z,5.95
2023-05-25T21:43:40.680Z,5.90
2023-05-25T21:46:07.285Z,5.60
2023-05-25T21:48:33.777Z,5.45
2023-05-25T21:51:00.436Z,5.82
2023-05-25T21:53:26.975Z,5.25
2023-05-25T21:55:55.657Z,5.45
2023-05-25T21:58:22.203Z,5.68
2023-05-25T22:00:48.858Z,5.65
2023-05-25T22:03:15.807Z,7.00
2023-05-25T22:05:42.584Z,5.82
2023-05-25T22:08:09.448Z,6.70
2023-05-25T22:10:36.368Z,6.80
2023-05-25T22:13:03.127Z,5.78
2023-05-25T22:15:29.639Z,5.85
2023-05-25T22:18:00.337Z,4.35
2023-05-25T22:20:29.831Z,3.38
2023-05-25T22:22:59.318Z,4.18
2023-05-25T22:25:28.857Z,3.35
2023-05-25T22:27:58.722Z,3.47
2023-05-25T22:30:25.715Z,3.38
2023-05-25T22:32:52.291Z,3.20
2023-05-25T22:35:18.812Z,3.20
2023-05-25T22:37:45.368Z,3.90
2023-05-25T22:40:12.291Z,3.10
2023-05-25T22:42:38.818Z,3.67
2023-05-25T22:45:06.102Z,3.20
2023-05-25T22:47:32.645Z,4.00
2023-05-25T22:49:59.177Z,3.47
2023-05-25T22:52:28.173Z,3.95
2023-05-25T22:54:54.753Z,3.40
2023-05-25T22:57:21.353Z,2.88
2023-05-25T22:59:47.912Z,3.28
2023-05-25T23:02:14.463Z,3.10
2023-05-25T23:04:59.132Z,2.80
2023-05-25T23:07:26.109Z,2.97
2023-05-25T23:09:52.652Z,3.60
2023-05-25T23:12:19.210Z,3.13
2023-05-25T23:14:45.714Z,3.30
2023-05-25T23:17:12.301Z,3.22
2023-05-25T23:19:40.194Z,3.92
2023-05-25T23:22:06.736Z,3.53
2023-05-25T23:24:33.302Z,3.03
2023-05-25T23:26:59.848Z,3.08
2023-05-25T23:29:26.361Z,3.65
2023-05-25T23:31:52.964Z,3.22
2023-05-25T23:34:19.662Z,3.10
2023-05-25T23:36:46.213Z,2.90
2023-05-25T23:39:13.134Z,3.20
2023-05-25T23:41:39.732Z,2.95
2023-05-25T23:44:06.427Z,3.45
2023-05-25T23:46:33.033Z,3.53
2023-05-25T23:48:59.806Z,3.15
2023-05-25T23:51:26.439Z,2.97
2023-05-25T23:53:53.023Z,3.35
2023-05-25T23:56:20.829Z,3.10
2023-05-25T23:58:47.418Z,2.80
